createdAt,value
2023-02-08T00:01:26.597Z,30.50
2023-02-08T00:03:55.967Z,27.75
2023-02-08T00:06:25.740Z,21.67
2023-02-08T00:08:54.813Z,24.25
2023-02-08T00:11:24.845Z,27.00
2023-02-08T00:13:53.766Z,26.00
2023-02-08T00:16:22.975Z,23.00
2023-02-08T00:18:54.000Z,19.75
2023-02-08T00:21:23.593Z,25.50
2023-02-08T00:23:53.285Z,20.25
2023-02-08T00:26:24.706Z,27.00
2023-02-08T00:28:54.821Z,30.50
2023-02-08T00:31:23.047Z,26.75
2023-02-08T00:33:56.078Z,31.00
2023-02-08T00:36:28.555Z,33.25
2023-02-08T00:38:57.754Z,25.25
2023-02-08T00:41:29.751Z,38.00
2023-02-08T00:43:57.995Z,36.00
2023-02-08T00:46:26.962Z,25.50
2023-02-08T00:48:55.957Z,27.50
2023-02-08T00:51:25.867Z,30.25
2023-02-08T00:53:55.158Z,38.75
2023-02-08T00:56:28.089Z,40.00
2023-02-08T00:58:57.686Z,35.50
2023-02-08T01:01:25.862Z,40.75
2023-02-08T01:03:54.659Z,37.75
2023-02-08T01:06:26.077Z,35.75
2023-02-08T01:08:54.769Z,32.00
2023-02-08T01:11:28.224Z,32.25
2023-02-08T01:14:01.775Z,33.50
2023-02-08T01:16:33.357Z,36.75
2023-02-08T01:19:05.077Z,39.25
2023-02-08T01:21:36.915Z,39.75
2023-02-08T01:26:56.634Z,34.75
2023-02-08T01:29:27.767Z,28.00
2023-02-08T01:31:57.421Z,36.25
2023-02-08T01:34:28.438Z,38.75
2023-02-08T01:37:03.538Z,32.25
2023-02-08T01:39:36.713Z,32.50
2023-02-08T01:45:25.479Z,33.50
2023-02-08T01:48:23.761Z,32.50
2023-02-08T01:51:14.959Z,31.75
2023-02-08T01:53:47.095Z,33.00
2023-02-08T01:56:47.141Z,34.75
2023-02-08T01:59:26.800Z,35.75
2023-02-08T02:01:58.396Z,37.50
2023-02-08T02:04:28.286Z,41.75
2023-02-08T02:07:01.926Z,35.25
2023-02-08T02:09:59.441Z,40.00
2023-02-08T02:12:33.148Z,41.00
2023-02-08T02:15:03.578Z,40.00
2023-02-08T02:17:33.785Z,42.75
2023-02-08T02:20:27.209Z,43.50
2023-02-08T02:23:22.166Z,39.50
2023-02-08T02:26:08.353Z,36.50
2023-02-08T02:29:01.870Z,43.75
2023-02-08T02:32:04.771Z,40.00
2023-02-08T02:34:45.669Z,40.75
2023-02-08T02:38:10.365Z,39.00
2023-02-08T02:40:57.360Z,33.25
2023-02-08T02:43:46.618Z,38.75
2023-02-08T02:46:54.387Z,35.50
2023-02-08T02:49:35.377Z,35.00
2023-02-08T02:52:20.448Z,38.00
2023-02-08T02:54:53.199Z,40.00
2023-02-08T02:57:29.540Z,39.50
2023-02-08T02:59:59.240Z,38.25
2023-02-08T03:02:32.608Z,38.00
2023-02-08T03:05:06.479Z,39.50
2023-02-08T03:07:59.346Z,32.75
2023-02-08T03:10:43.367Z,38.25
2023-02-08T03:13:57.100Z,39.25
2023-02-08T03:16:40.341Z,37.00
2023-02-08T03:19:18.452Z,37.50
2023-02-08T03:21:55.404Z,36.50
2023-02-08T03:25:02.487Z,38.50
2023-02-08T03:27:56.248Z,38.50
2023-02-08T03:31:07.409Z,35.00
2023-02-08T03:33:57.537Z,40.00
2023-02-08T03:36:49.298Z,42.25
2023-02-08T03:39:23.390Z,39.25
2023-02-08T03:41:59.309Z,42.75
2023-02-08T03:44:44.584Z,40.00
2023-02-08T03:47:30.568Z,41.50
2023-02-08T03:50:05.719Z,40.00
2023-02-08T03:52:36.652Z,41.25
2023-02-08T03:55:12.248Z,38.75
2023-02-08T03:57:59.095Z,40.00
2023-02-08T04:00:34.453Z,39.75
2023-02-08T04:03:13.838Z,40.50
2023-02-08T04:05:46.891Z,41.75
2023-02-08T04:08:14.834Z,39.25
2023-02-08T04:10:47.535Z,41.00
2023-02-08T04:13:16.329Z,40.25
2023-02-08T04:15:45.326Z,37.00
2023-02-08T04:18:14.189Z,38.50
2023-02-08T04:20:43.364Z,36.00
2023-02-08T04:23:11.755Z,39.25
2023-02-08T04:25:41.020Z,40.75
2023-02-08T04:28:12.494Z,42.25
2023-02-08T04:30:42.016Z,42.75
2023-02-08T04:33:14.409Z,40.75
2023-02-08T04:35:43.768Z,41.25
2023-02-08T04:38:12.894Z,39.50
2023-02-08T04:40:42.243Z,37.75
2023-02-08T04:43:12.145Z,40.25
2023-02-08T04:45:41.149Z,41.25
2023-02-08T04:48:11.978Z,42.50
2023-02-08T04:50:41.097Z,43.50
2023-02-08T04:53:10.182Z,38.75
2023-02-08T04:55:39.089Z,41.50
2023-02-08T04:58:10.906Z,41.00
2023-02-08T05:00:40.898Z,40.50
2023-02-08T05:03:13.374Z,38.25
2023-02-08T05:05:42.605Z,43.75
2023-02-08T05:08:12.012Z,40.00
2023-02-08T05:10:46.700Z,41.50
2023-02-08T05:13:15.877Z,38.25
2023-02-08T05:15:45.815Z,41.00
2023-02-08T05:18:14.799Z,36.00
2023-02-08T05:20:43.741Z,39.50
2023-02-08T05:23:13.038Z,40.50
2023-02-08T05:25:44.907Z,35.00
2023-02-08T05:28:14.278Z,39.25
2023-02-08T05:30:43.899Z,46.25
2023-02-08T05:33:13.333Z,48.00
2023-02-08T05:35:45.878Z,39.00
2023-02-08T05:38:15.700Z,37.25
2023-02-08T05:40:45.498Z,33.25
2023-02-08T05:43:14.779Z,40.50
2023-02-08T05:45:46.846Z,40.00
2023-02-08T05:48:15.859Z,38.50
2023-02-08T05:50:46.046Z,38.25
2023-02-08T05:53:15.593Z,38.25
2023-02-08T05:55:51.692Z,35.00
2023-02-08T05:58:24.534Z,47.25
2023-02-08T06:00:54.877Z,38.75
2023-02-08T06:03:24.193Z,43.50
2023-02-08T06:05:53.881Z,37.75
2023-02-08T06:08:22.742Z,37.75
2023-02-08T06:10:54.714Z,40.25
2023-02-08T06:13:24.732Z,51.25
2023-02-08T06:15:53.750Z,38.75
2023-02-08T06:18:24.519Z,38.00
2023-02-08T06:20:56.015Z,38.00
2023-02-08T06:23:25.772Z,35.75
2023-02-08T06:25:54.742Z,41.25
2023-02-08T06:28:24.524Z,37.75
2023-02-08T06:30:56.484Z,36.50
2023-02-08T06:33:25.545Z,29.75
2023-02-08T06:36:03.014Z,30.75
2023-02-08T06:38:31.840Z,23.75
2023-02-08T06:41:02.561Z,32.75
2023-02-08T06:43:34.133Z,35.50
2023-02-08T06:46:05.994Z,34.00
2023-02-08T06:48:38.094Z,35.00
2023-02-08T06:51:08.576Z,35.25
2023-02-08T06:53:38.251Z,27.00
2023-02-08T06:56:12.864Z,28.00
2023-02-08T06:58:45.366Z,29.00
2023-02-08T07:01:19.847Z,31.50
2023-02-08T07:03:50.243Z,28.25
2023-02-08T07:06:21.874Z,30.25
2023-02-08T07:08:53.521Z,27.25
2023-02-08T07:11:25.171Z,28.00
2023-02-08T07:13:56.078Z,31.50
2023-02-08T07:16:35.449Z,34.00
2023-02-08T07:19:04.128Z,29.00
2023-02-08T07:21:34.608Z,30.75
2023-02-08T07:24:05.899Z,31.50
2023-02-08T07:26:34.891Z,27.67
2023-02-08T07:29:02.965Z,27.67
2023-02-08T07:31:32.971Z,31.00
2023-02-08T07:34:02.550Z,27.00
2023-02-08T07:36:32.715Z,30.00
2023-02-08T07:42:01.277Z,31.00
2023-02-08T07:44:30.960Z,22.00
2023-02-08T07:47:02.436Z,24.00
2023-02-08T07:49:32.563Z,24.33
2023-02-08T07:52:02.989Z,27.33
2023-02-08T07:54:35.074Z,24.67
2023-02-08T07:57:05.036Z,27.33
2023-02-08T07:59:36.206Z,28.67
2023-02-08T08:02:05.367Z,29.00
2023-02-08T08:04:35.065Z,23.67
2023-02-08T08:07:03.773Z,21.00
2023-02-08T08:09:34.160Z,29.33
2023-02-08T08:12:03.561Z,27.33
2023-02-08T08:14:32.795Z,31.00
2023-02-08T08:17:02.459Z,19.33
2023-02-08T08:19:35.405Z,23.67
2023-02-08T08:22:03.643Z,22.67
2023-02-08T08:24:35.878Z,28.00
2023-02-08T08:27:13.438Z,31.33
2023-02-08T08:29:44.594Z,14.33
2023-02-08T08:32:13.772Z,31.00
2023-02-08T08:34:43.055Z,29.33
2023-02-08T08:37:12.050Z,28.00
2023-02-08T08:39:41.151Z,26.00
2023-02-08T08:42:13.012Z,24.67
2023-02-08T08:44:41.820Z,21.33
2023-02-08T08:47:11.363Z,28.67
2023-02-08T08:49:39.911Z,26.33
2023-02-08T08:52:10.284Z,26.00
2023-02-08T08:54:39.967Z,25.33
2023-02-08T08:57:09.145Z,29.00
2023-02-08T08:59:40.697Z,28.00
2023-02-08T09:02:14.602Z,36.00
2023-02-08T09:04:48.228Z,32.33
2023-02-08T09:07:18.311Z,23.00
2023-02-08T09:09:51.024Z,34.67
2023-02-08T09:12:21.677Z,36.67
2023-02-08T09:14:49.923Z,26.33
2023-02-08T09:17:20.505Z,26.00
2023-02-08T09:19:49.838Z,27.67
2023-02-08T09:22:20.990Z,35.00
2023-02-08T09:24:55.437Z,25.33
2023-02-08T09:27:24.626Z,34.00
2023-02-08T09:29:55.981Z,21.00
2023-02-08T09:32:25.604Z,22.67
2023-02-08T09:34:57.370Z,25.67
2023-02-08T09:37:26.368Z,18.67
2023-02-08T09:39:56.326Z,24.33
2023-02-08T09:42:39.991Z,23.33
2023-02-08T09:45:58.948Z,26.00
2023-02-08T09:48:36.097Z,21.33
2023-02-08T09:51:49.041Z,25.50
2023-02-08T09:54:30.998Z,24.00
2023-02-08T09:57:04.989Z,13.50
2023-02-08T09:59:37.402Z,17.00
2023-02-08T10:02:30.243Z,20.00
2023-02-08T10:05:14.173Z,21.75
2023-02-08T10:07:44.171Z,10.00
2023-02-08T10:10:20.880Z,21.50
2023-02-08T10:13:27.610Z,24.25
2023-02-08T10:16:19.758Z,16.00
2023-02-08T10:19:17.547Z,21.25
2023-02-08T10:22:04.212Z,13.50
2023-02-08T10:25:07.741Z,25.50
2023-02-08T10:28:14.461Z,19.00
2023-02-08T10:36:28.529Z,12.25
2023-02-08T10:39:01.105Z,19.00
2023-02-08T10:41:37.826Z,19.00
2023-02-08T10:45:01.796Z,25.75
2023-02-08T10:47:48.385Z,24.75
2023-02-08T10:50:54.152Z,23.00
2023-02-08T10:53:23.791Z,19.75
2023-02-08T10:55:59.382Z,18.50
2023-02-08T12:17:42.721Z,20.00
2023-02-08T20:15:29.869Z,38.75
2023-02-08T20:17:58.854Z,29.75
2023-02-08T20:20:27.896Z,34.25
2023-02-08T20:23:00.547Z,32.50
2023-02-08T20:25:35.868Z,30.75
2023-02-08T20:28:13.354Z,26.00
2023-02-08T20:30:43.013Z,25.67
2023-02-08T20:33:25.912Z,32.00
2023-02-08T20:35:58.141Z,36.00
2023-02-08T20:38:40.222Z,38.50
2023-02-08T20:41:14.972Z,23.50
2023-02-08T20:43:45.872Z,22.50
2023-02-08T20:46:23.401Z,26.50
2023-02-08T20:48:53.631Z,28.00
2023-02-08T20:51:23.556Z,30.75
2023-02-08T20:53:59.235Z,23.75
2023-02-08T20:56:41.531Z,26.25
2023-02-08T20:59:16.209Z,37.00
2023-02-08T21:01:48.278Z,35.50
2023-02-08T21:04:24.160Z,31.75
2023-02-08T21:06:58.449Z,32.25
2023-02-08T21:09:29.856Z,34.25
2023-02-08T21:14:44.889Z,29.25
2023-02-08T21:17:19.041Z,30.75
2023-02-08T21:19:51.916Z,34.00
2023-02-08T21:22:26.013Z,29.00
2023-02-08T21:24:55.288Z,29.50
2023-02-08T21:27:25.414Z,40.25
2023-02-08T21:29:54.569Z,44.50
2023-02-08T21:32:25.670Z,48.50
2023-02-08T21:34:57.779Z,55.75
2023-02-08T21:37:26.517Z,63.00
2023-02-08T22:57:15.603Z,39.75
2023-02-08T23:03:29.968Z,39.00
2023-02-08T23:40:41.436Z,41.50
2023-02-08T23:43:29.067Z,38.25
2023-02-08T23:57:40.621Z,50.75
